createdAt,value
2018-10-19T00:05:18.920Z,13.33
2018-10-19T00:16:20.796Z,13.18
2018-10-19T00:27:22.284Z,13.14
2018-10-19T00:38:25.758Z,12.96
2018-10-19T00:49:24.821Z,12.89
2018-10-19T01:00:26.500Z,12.81
2018-10-19T01:11:29.228Z,12.71
2018-10-19T01:22:31.352Z,12.55
2018-10-19T01:33:33.368Z,12.36
2018-10-19T01:44:35.972Z,12.09
2018-10-19T01:55:38.063Z,11.94
2018-10-19T02:06:40.383Z,11.84
2018-10-19T02:17:42.736Z,11.71
2018-10-19T02:28:43.423Z,11.59
2018-10-19T02:39:43.868Z,11.41
2018-10-19T02:50:42.464Z,11.31
2018-10-19T03:01:44.263Z,11.18
2018-10-19T03:12:46.736Z,11.21
2018-10-19T03:23:49.218Z,11.06
2018-10-19T03:34:51.990Z,11.05
2018-10-19T03:45:54.923Z,11.03
2018-10-19T03:56:56.945Z,11.00
2018-10-19T04:07:58.459Z,11.23
2018-10-19T04:19:01.606Z,11.24
2018-10-19T04:30:03.614Z,11.20
2018-10-19T04:41:05.957Z,11.13
2018-10-19T04:52:06.067Z,11.17
2018-10-19T05:03:09.026Z,11.13
2018-10-19T05:14:11.612Z,11.11
2018-10-19T05:25:13.468Z,11.16
2018-10-19T05:36:11.926Z,11.10
2018-10-19T05:47:14.069Z,11.00
2018-10-19T05:58:14.141Z,11.06
2018-10-19T06:09:17.319Z,11.24
2018-10-19T06:20:19.636Z,11.50
2018-10-19T06:31:21.988Z,11.90
2018-10-19T06:42:24.239Z,12.45
2018-10-19T06:53:26.956Z,12.78
2018-10-19T07:04:29.199Z,13.18
2018-10-19T07:15:30.056Z,13.92
2018-10-19T07:26:33.082Z,14.65
2018-10-19T07:37:35.618Z,15.01
2018-10-19T07:48:36.211Z,14.93
2018-10-19T07:59:38.167Z,15.06
2018-10-19T08:10:40.085Z,15.03
2018-10-19T08:21:40.121Z,15.53
2018-10-19T08:32:42.378Z,15.85
2018-10-19T08:43:43.747Z,16.20
2018-10-19T08:54:43.059Z,16.52
2018-10-19T09:05:44.792Z,17.13
2018-10-19T09:16:42.972Z,17.74
2018-10-19T09:27:44.228Z,18.31
2018-10-19T09:38:46.796Z,18.49
2018-10-19T09:49:48.108Z,19.14
2018-10-19T10:00:47.091Z,19.46
2018-10-19T10:11:49.333Z,19.90
2018-10-19T10:22:51.414Z,20.15
2018-10-19T10:33:53.451Z,20.49
2018-10-19T10:44:54.449Z,20.94
2018-10-19T10:55:46.913Z,22.19
2018-10-19T11:06:48.763Z,21.98
2018-10-19T11:17:51.075Z,22.16
2018-10-19T11:28:52.777Z,21.97
2018-10-19T11:39:48.278Z,22.24
2018-10-19T11:50:47.290Z,22.46
2018-10-19T12:01:38.614Z,22.67
2018-10-19T12:12:40.414Z,22.44
2018-10-19T12:23:41.529Z,23.33
2018-10-19T12:34:44.655Z,23.23
2018-10-19T12:45:43.868Z,22.68
2018-10-19T12:56:45.366Z,23.05
2018-10-19T13:07:38.869Z,21.97
2018-10-19T13:18:34.118Z,20.56
2018-10-19T13:29:27.734Z,19.79
2018-10-19T13:40:22.051Z,20.83
2018-10-19T13:51:10.425Z,21.44
2018-10-19T14:02:02.293Z,21.01
2018-10-19T14:12:53.112Z,20.59
2018-10-19T14:23:46.454Z,20.26
2018-10-19T14:34:40.609Z,19.82
2018-10-19T14:45:35.289Z,19.14
2018-10-19T14:56:28.133Z,18.86
2018-10-19T15:07:19.651Z,18.40
2018-10-19T15:18:03.768Z,17.91
2018-10-19T15:29:02.381Z,17.43
2018-10-19T15:39:58.703Z,16.89
2018-10-19T15:50:58.791Z,16.25
2018-10-19T16:01:32.511Z,15.67
2018-10-19T16:12:27.050Z,15.23
2018-10-19T16:23:14.656Z,15.10
2018-10-19T16:34:08.235Z,14.67
2018-10-19T16:45:08.192Z,14.46
2018-10-19T16:56:06.048Z,13.96
2018-10-19T17:06:53.973Z,13.65
2018-10-19T17:17:50.885Z,13.27
2018-10-19T17:28:44.909Z,13.02
2018-10-19T17:39:41.800Z,12.77
2018-10-19T17:50:38.561Z,12.49
2018-10-19T18:01:37.599Z,12.30
2018-10-19T18:12:17.572Z,12.16
2018-10-19T18:23:00.192Z,11.83
2018-10-19T18:33:41.568Z,11.84
2018-10-19T18:44:28.410Z,11.54
2018-10-19T18:55:21.296Z,11.39
2018-10-19T19:06:12.447Z,11.28
2018-10-19T19:17:04.834Z,11.13
2018-10-19T19:27:56.605Z,10.99
2018-10-19T19:38:51.985Z,10.98
2018-10-19T19:49:37.748Z,10.75
2018-10-19T20:00:36.610Z,10.67
2018-10-19T20:11:34.862Z,10.49
2018-10-19T20:22:25.380Z,10.29
2018-10-19T20:33:16.192Z,10.41
2018-10-19T20:43:50.602Z,10.36
2018-10-19T20:54:39.746Z,10.16
2018-10-19T21:05:39.418Z,10.13
2018-10-19T21:16:40.140Z,10.29
2018-10-19T21:27:39.650Z,10.21
2018-10-19T21:38:38.846Z,10.06
2018-10-19T21:49:37.322Z,10.03
2018-10-19T22:00:34.174Z,9.78
2018-10-19T22:11:34.512Z,9.60
2018-10-19T22:22:31.756Z,9.46
2018-10-19T22:33:27.550Z,9.31
2018-10-19T22:44:29.278Z,9.55
2018-10-19T22:55:26.178Z,9.34
2018-10-19T23:06:24.539Z,9.31
2018-10-19T23:17:26.545Z,9.16
2018-10-19T23:28:26.077Z,9.24
2018-10-19T23:39:27.765Z,8.77
2018-10-19T23:50:28.151Z,8.72
